Time;durP1;ratioP1;P1;durP2;ratioP2;P2;SDS_P1;SDS_P2;PMS_P1;PMS_P2;Temp;Humidity;BMP_temperature;BMP_pressure;BME280_temperature;BME280_humidity;BME280_pressure;Samples;Min_cycle;Max_cycle;Signal;HPM_P1;HPM_P2
2023/09/22 00:02:09;;;;;;;9.60;8.27;;;;;;;;;;5027225;28;20433;-58
2023/09/22 00:04:35;;;;;;;9.87;8.23;;;;;;;;;;5032193;28;20885;-58
2023/09/22 00:07:00;;;;;;;10.10;8.57;;;;;;;;;;5045287;28;20477;-60
2023/09/22 00:09:26;;;;;;;9.80;8.23;;;;;;;;;;5046248;28;20464;-57
2023/09/22 00:11:51;;;;;;;9.87;8.63;;;;;;;;;;5043576;28;20485;-58
2023/09/22 00:14:16;;;;;;;8.90;8.00;;;;;;;;;;5046475;28;20892;-58
2023/09/22 00:16:42;;;;;;;9.50;7.80;;;;;;;;;;5047218;28;20412;-58
2023/09/22 00:19:08;;;;;;;9.02;8.13;;;;;;;;;;5043955;28;20434;-58
2023/09/22 00:21:34;;;;;;;9.40;7.53;;;;;;;;;;5046015;28;21059;-57
2023/09/22 00:23:59;;;;;;;8.70;7.60;;;;;;;;;;5046921;28;20397;-57
2023/09/22 00:26:24;;;;;;;9.27;6.93;;;;;;;;;;5043773;28;20918;-57
2023/09/22 00:28:49;;;;;;;7.83;6.70;;;;;;;;;;5046802;28;20459;-58
2023/09/22 00:31:15;;;;;;;8.20;6.53;;;;;;;;;;5046718;28;20405;-58
2023/09/22 00:33:40;;;;;;;8.60;6.97;;;;;;;;;;5045563;28;20455;-58
2023/09/22 00:36:05;;;;;;;8.70;7.27;;;;;;;;;;5044863;28;20417;-58
2023/09/22 00:38:30;;;;;;;8.50;7.50;;;;;;;;;;5046921;28;20932;-58
2023/09/22 00:40:56;;;;;;;9.73;8.70;;;;;;;;;;5045563;28;20401;-58
2023/09/22 00:43:21;;;;;;;11.67;8.80;;;;;;;;;;5047287;28;20413;-57
2023/09/22 00:45:48;;;;;;;11.27;10.03;;;;;;;;;;5050380;28;20402;-58
2023/09/22 00:48:18;;;;;;;12.63;9.93;;;;;;;;;;5050673;28;20405;-58
2023/09/22 00:50:43;;;;;;;12.43;10.63;;;;;;;;;;5048433;28;20492;-58
2023/09/22 00:53:08;;;;;;;12.03;10.83;;;;;;;;;;5048453;28;20496;-58
2023/09/22 00:55:33;;;;;;;12.75;11.45;;;;;;;;;;5037579;28;21330;-58
2023/09/22 00:57:59;;;;;;;13.35;11.57;;;;;;;;;;5022148;28;20490;-58
2023/09/22 01:00:27;;;;;;;13.32;11.70;;;;;;;;;;5021788;28;20407;-57
2023/09/22 01:02:52;;;;;;;14.87;12.30;;;;;;;;;;5022588;28;20820;-58
2023/09/22 01:05:17;;;;;;;14.20;12.40;;;;;;;;;;5027967;28;20399;-57
2023/09/22 01:07:44;;;;;;;14.83;13.07;;;;;;;;;;5030189;28;20669;-57
2023/09/22 01:10:10;;;;;;;14.50;12.93;;;;;;;;;;5034302;28;20913;-57
2023/09/22 01:12:35;;;;;;;16.50;13.68;;;;;;;;;;5026893;28;20440;-58
2023/09/22 01:15:00;;;;;;;16.70;14.20;;;;;;;;;;5028222;28;20793;-60
2023/09/22 01:17:25;;;;;;;16.23;14.53;;;;;;;;;;5029821;28;20409;-58
2023/09/22 01:19:51;;;;;;;16.40;14.60;;;;;;;;;;5021077;28;20741;-58
2023/09/22 01:22:16;;;;;;;17.63;14.77;;;;;;;;;;5019852;28;20419;-58
2023/09/22 01:24:41;;;;;;;16.27;14.53;;;;;;;;;;5022550;28;20464;-57
2023/09/22 01:27:07;;;;;;;16.23;14.27;;;;;;;;;;5026303;28;20973;-58
2023/09/22 01:29:32;;;;;;;19.13;15.77;;;;;;;;;;5026576;28;20426;-58
2023/09/22 01:31:57;;;;;;;17.97;15.77;;;;;;;;;;5029968;28;20417;-57
2023/09/22 01:34:23;;;;;;;18.30;16.23;;;;;;;;;;5027171;28;20401;-58
2023/09/22 01:36:48;;;;;;;19.07;15.90;;;;;;;;;;5025323;28;20414;-58
2023/09/22 01:39:16;;;;;;;17.90;15.35;;;;;;;;;;5028941;28;20407;-58
2023/09/22 01:41:42;;;;;;;17.98;14.95;;;;;;;;;;5027614;28;20457;-57
2023/09/22 01:44:07;;;;;;;18.63;14.93;;;;;;;;;;5018089;28;20815;-58
2023/09/22 01:46:32;;;;;;;16.23;14.17;;;;;;;;;;5018919;28;20595;-58
2023/09/22 01:48:57;;;;;;;17.13;15.10;;;;;;;;;;5026674;28;20904;-58
2023/09/22 01:51:23;;;;;;;16.83;14.53;;;;;;;;;;5026652;28;20844;-58
2023/09/22 01:53:49;;;;;;;16.70;14.90;;;;;;;;;;5027007;28;20433;-57
2023/09/22 01:56:14;;;;;;;16.97;14.17;;;;;;;;;;5039219;28;20432;-57
2023/09/22 01:58:39;;;;;;;18.67;14.20;;;;;;;;;;5047900;28;20523;-57
2023/09/22 02:01:05;;;;;;;18.17;13.90;;;;;;;;;;5049373;28;20409;-57
2023/09/22 02:03:30;;;;;;;16.97;12.97;;;;;;;;;;5048486;28;20406;-57
2023/09/22 02:05:57;;;;;;;15.70;12.90;;;;;;;;;;5047667;28;20405;-58
2023/09/22 02:08:23;;;;;;;14.00;11.70;;;;;;;;;;5035496;28;20433;-57
2023/09/22 02:10:48;;;;;;;12.85;10.70;;;;;;;;;;5026472;28;20489;-57
2023/09/22 02:13:13;;;;;;;14.35;10.48;;;;;;;;;;5028163;28;20504;-58
2023/09/22 02:15:38;;;;;;;13.50;11.18;;;;;;;;;;5023279;28;20746;-58
2023/09/22 02:18:04;;;;;;;11.80;9.80;;;;;;;;;;5017864;28;20412;-58
2023/09/22 02:20:29;;;;;;;12.93;10.60;;;;;;;;;;5020674;28;20419;-57
2023/09/22 02:22:55;;;;;;;12.57;10.07;;;;;;;;;;5023959;28;20946;-58
2023/09/22 02:25:20;;;;;;;13.13;10.90;;;;;;;;;;5025104;28;20392;-57
2023/09/22 02:27:47;;;;;;;13.13;10.83;;;;;;;;;;5026449;28;20498;-58
2023/09/22 02:30:14;;;;;;;13.55;10.93;;;;;;;;;;5029757;28;20411;-57
2023/09/22 02:32:40;;;;;;;14.00;10.90;;;;;;;;;;5026330;28;20874;-57
2023/09/22 02:35:06;;;;;;;13.73;10.50;;;;;;;;;;5026932;28;20403;-58
2023/09/22 02:37:31;;;;;;;13.57;10.13;;;;;;;;;;5028336;28;20416;-58
2023/09/22 02:39:57;;;;;;;13.13;10.80;;;;;;;;;;5024127;28;20835;-57
2023/09/22 02:42:22;;;;;;;11.80;9.63;;;;;;;;;;5018507;28;21003;-58
2023/09/22 02:44:47;;;;;;;12.53;9.33;;;;;;;;;;5019942;28;20944;-57
2023/09/22 02:47:13;;;;;;;12.33;9.33;;;;;;;;;;5026024;28;20407;-57
2023/09/22 02:49:38;;;;;;;11.50;9.13;;;;;;;;;;5026250;28;20495;-57
2023/09/22 02:52:04;;;;;;;11.33;8.47;;;;;;;;;;5025969;28;20458;-58
2023/09/22 02:54:29;;;;;;;11.80;8.67;;;;;;;;;;5026146;28;20402;-57
2023/09/22 02:56:55;;;;;;;11.33;8.50;;;;;;;;;;5025799;28;20417;-57
2023/09/22 02:59:20;;;;;;;10.93;8.45;;;;;;;;;;5024978;28;20409;-57
2023/09/22 03:01:46;;;;;;;11.40;8.60;;;;;;;;;;5021749;28;20508;-57
2023/09/22 03:04:11;;;;;;;12.77;9.07;;;;;;;;;;5018396;28;20414;-57
2023/09/22 03:06:36;;;;;;;12.80;8.77;;;;;;;;;;5017269;28;20426;-57
2023/09/22 03:09:06;;;;;;;12.68;8.90;;;;;;;;;;5024835;28;20415;-57
2023/09/22 03:11:31;;;;;;;14.20;9.00;;;;;;;;;;5027917;28;20412;-57
2023/09/22 03:13:57;;;;;;;12.33;8.40;;;;;;;;;;5025287;28;20401;-57
2023/09/22 03:16:22;;;;;;;12.37;8.80;;;;;;;;;;5025448;28;20909;-57
2023/09/22 03:18:49;;;;;;;11.97;7.87;;;;;;;;;;5027961;28;20472;-58
2023/09/22 03:21:15;;;;;;;10.60;7.68;;;;;;;;;;5032550;28;20405;-57
2023/09/22 03:23:40;;;;;;;11.88;7.35;;;;;;;;;;5021868;28;20413;-57
2023/09/22 03:26:06;;;;;;;12.23;7.77;;;;;;;;;;5018625;28;20418;-57
2023/09/22 03:28:31;;;;;;;11.47;7.47;;;;;;;;;;5018059;28;20401;-58
2023/09/22 03:30:58;;;;;;;10.27;7.50;;;;;;;;;;5021666;28;20413;-57
2023/09/22 03:33:23;;;;;;;12.65;8.50;;;;;;;;;;5025727;28;20905;-57
2023/09/22 03:35:48;;;;;;;12.20;8.60;;;;;;;;;;5025659;28;20418;-57
2023/09/22 03:38:15;;;;;;;13.90;8.60;;;;;;;;;;5025110;28;20441;-57
2023/09/22 03:40:41;;;;;;;13.23;8.87;;;;;;;;;;5026321;28;21289;-57
2023/09/22 03:43:06;;;;;;;12.52;8.90;;;;;;;;;;5024910;28;20426;-58
2023/09/22 03:45:31;;;;;;;12.27;8.00;;;;;;;;;;5025283;28;21252;-57
2023/09/22 03:47:58;;;;;;;13.48;8.73;;;;;;;;;;5017653;28;20933;-57
2023/09/22 03:50:23;;;;;;;12.10;8.53;;;;;;;;;;5017965;28;20405;-58
2023/09/22 03:52:48;;;;;;;15.27;9.20;;;;;;;;;;5020868;28;21003;-58
2023/09/22 03:55:14;;;;;;;12.77;8.68;;;;;;;;;;5024586;28;20765;-57
2023/09/22 03:57:39;;;;;;;12.82;9.02;;;;;;;;;;5025151;28;20431;-57
2023/09/22 04:00:08;;;;;;;13.90;9.43;;;;;;;;;;5025342;28;21552;-57
2023/09/22 04:02:34;;;;;;;12.00;8.43;;;;;;;;;;5033071;28;20784;-57
2023/09/22 04:04:59;;;;;;;15.27;9.43;;;;;;;;;;5023732;28;20900;-57
2023/09/22 04:07:25;;;;;;;14.27;9.10;;;;;;;;;;5024925;28;20406;-58
2023/09/22 04:09:50;;;;;;;13.83;9.53;;;;;;;;;;5019110;28;20405;-58
2023/09/22 04:12:15;;;;;;;16.57;10.57;;;;;;;;;;5016623;28;20432;-58
2023/09/22 04:14:41;;;;;;;16.33;10.70;;;;;;;;;;5017793;28;21079;-58
2023/09/22 04:17:08;;;;;;;14.57;9.93;;;;;;;;;;5024247;28;20414;-58
2023/09/22 04:19:33;;;;;;;14.57;10.38;;;;;;;;;;5024886;28;20414;-57
2023/09/22 04:21:59;;;;;;;18.67;12.07;;;;;;;;;;5025048;28;20766;-58
2023/09/22 04:24:31;;;;;;;13.90;9.73;;;;;;;;;;5025667;28;20396;-57
2023/09/22 04:27:00;;;;;;;13.00;9.18;;;;;;;;;;5031227;28;20409;-58
2023/09/22 04:29:26;;;;;;;14.60;10.07;;;;;;;;;;5024957;28;20525;-57
2023/09/22 04:31:51;;;;;;;15.97;10.33;;;;;;;;;;5020513;28;21057;-57
2023/09/22 04:34:18;;;;;;;13.65;9.30;;;;;;;;;;5018146;28;20439;-57
2023/09/22 04:36:43;;;;;;;13.73;9.43;;;;;;;;;;5016717;28;20447;-57
2023/09/22 04:39:09;;;;;;;14.83;9.50;;;;;;;;;;5020016;28;20411;-57
2023/09/22 04:41:34;;;;;;;13.87;9.13;;;;;;;;;;5027641;28;20772;-58
2023/09/22 04:43:59;;;;;;;15.60;9.57;;;;;;;;;;5025169;28;20417;-57
2023/09/22 04:46:25;;;;;;;12.07;8.45;;;;;;;;;;5022488;28;20783;-57
2023/09/22 04:48:51;;;;;;;11.63;7.50;;;;;;;;;;5026380;28;20971;-57
2023/09/22 04:51:16;;;;;;;11.30;7.67;;;;;;;;;;5028058;28;20936;-57
2023/09/22 04:53:41;;;;;;;11.77;7.77;;;;;;;;;;5047128;28;20397;-57
2023/09/22 04:56:07;;;;;;;11.20;6.35;;;;;;;;;;5048160;28;21127;-57
2023/09/22 04:58:32;;;;;;;9.37;6.03;;;;;;;;;;5045928;28;20398;-57
2023/09/22 05:01:01;;;;;;;11.07;6.30;;;;;;;;;;5044960;28;20499;-57
2023/09/22 05:03:26;;;;;;;9.75;5.93;;;;;;;;;;5046225;28;20420;-57
2023/09/22 05:05:52;;;;;;;11.83;6.10;;;;;;;;;;5046433;28;20401;-57
2023/09/22 05:08:17;;;;;;;9.83;5.93;;;;;;;;;;5042958;28;20428;-57
2023/09/22 05:11:11;;;;;;;10.60;5.47;;;;;;;;;;5045683;28;20438;-57
2023/09/22 05:13:36;;;;;;;9.40;5.68;;;;;;;;;;5044482;28;20747;-57
2023/09/22 05:16:03;;;;;;;9.97;5.17;;;;;;;;;;5044278;28;20405;-57
2023/09/22 05:18:28;;;;;;;7.80;4.47;;;;;;;;;;5044483;28;20787;-56
2023/09/22 05:20:54;;;;;;;10.07;5.27;;;;;;;;;;5045800;28;20397;-57
2023/09/22 05:23:19;;;;;;;8.33;4.43;;;;;;;;;;5045768;28;20750;-57
2023/09/22 05:25:44;;;;;;;10.43;4.90;;;;;;;;;;5043755;28;20398;-57
2023/09/22 05:28:10;;;;;;;8.83;4.40;;;;;;;;;;5046194;28;20467;-57
2023/09/22 05:30:38;;;;;;;7.83;4.00;;;;;;;;;;5049313;28;20412;-57
2023/09/22 05:33:06;;;;;;;7.40;4.00;;;;;;;;;;5047787;28;20406;-57
2023/09/22 05:35:32;;;;;;;7.27;3.70;;;;;;;;;;5047983;28;20518;-57
2023/09/22 05:37:57;;;;;;;9.45;4.00;;;;;;;;;;5049595;28;20479;-57
2023/09/22 05:40:23;;;;;;;7.77;3.63;;;;;;;;;;5048935;28;20386;-57
2023/09/22 05:42:48;;;;;;;9.83;3.60;;;;;;;;;;5046626;28;20428;-57
2023/09/22 05:45:14;;;;;;;8.40;4.25;;;;;;;;;;5049353;28;20432;-57
2023/09/22 05:47:39;;;;;;;7.70;4.00;;;;;;;;;;5041193;28;20787;-57
2023/09/22 05:50:05;;;;;;;7.83;4.00;;;;;;;;;;5046564;28;20409;-57
2023/09/22 05:52:30;;;;;;;7.07;3.70;;;;;;;;;;5049388;28;20397;-57
2023/09/22 05:54:56;;;;;;;8.93;3.67;;;;;;;;;;5049689;28;20401;-57
2023/09/22 05:57:21;;;;;;;8.17;4.10;;;;;;;;;;5047388;28;20378;-57
2023/09/22 05:59:47;;;;;;;7.50;3.93;;;;;;;;;;5047861;28;20413;-55
2023/09/22 06:02:12;;;;;;;6.75;4.15;;;;;;;;;;5048999;28;20429;-57
2023/09/22 06:04:37;;;;;;;7.13;4.10;;;;;;;;;;5046121;28;20788;-57
2023/09/22 06:07:03;;;;;;;7.50;4.00;;;;;;;;;;5045607;28;20516;-58
2023/09/22 06:09:29;;;;;;;7.10;3.73;;;;;;;;;;5048679;28;20913;-57
2023/09/22 06:11:54;;;;;;;6.32;3.80;;;;;;;;;;5049678;28;20476;-57
2023/09/22 06:14:19;;;;;;;7.57;3.93;;;;;;;;;;5047222;28;21364;-57
2023/09/22 06:16:44;;;;;;;7.70;3.77;;;;;;;;;;5047946;28;20466;-57
2023/09/22 06:19:10;;;;;;;7.80;3.70;;;;;;;;;;5049003;28;20410;-57
2023/09/22 06:21:36;;;;;;;7.43;3.80;;;;;;;;;;5048690;28;20428;-57
2023/09/22 06:24:01;;;;;;;7.75;3.40;;;;;;;;;;5046031;28;20447;-58
2023/09/22 06:26:26;;;;;;;6.40;3.37;;;;;;;;;;5048022;28;20730;-57
2023/09/22 06:28:51;;;;;;;7.03;3.20;;;;;;;;;;5049089;28;20404;-57
2023/09/22 06:31:17;;;;;;;9.37;3.47;;;;;;;;;;5044956;28;20404;-57
2023/09/22 06:33:42;;;;;;;6.73;3.17;;;;;;;;;;5049028;28;21883;-57
2023/09/22 06:36:08;;;;;;;4.85;2.58;;;;;;;;;;5048703;28;20397;-57
2023/09/22 06:38:33;;;;;;;5.63;2.60;;;;;;;;;;5046715;28;20452;-58
2023/09/22 06:40:59;;;;;;;5.60;2.30;;;;;;;;;;5047198;28;20949;-57
2023/09/22 06:43:24;;;;;;;4.73;2.33;;;;;;;;;;5046780;28;20409;-57
2023/09/22 06:45:58;;;;;;;5.67;2.67;;;;;;;;;;5047644;28;20437;-57
2023/09/22 06:48:26;;;;;;;4.88;2.67;;;;;;;;;;5046027;28;20406;-57
2023/09/22 06:50:51;;;;;;;6.57;2.70;;;;;;;;;;5048924;28;20527;-57
2023/09/22 06:53:18;;;;;;;6.28;2.53;;;;;;;;;;5047120;28;20476;-57
2023/09/22 06:55:43;;;;;;;6.65;2.53;;;;;;;;;;5047015;28;20633;-57
2023/09/22 06:58:08;;;;;;;5.17;2.30;;;;;;;;;;5047211;28;20956;-57
2023/09/22 07:00:34;;;;;;;6.53;2.30;;;;;;;;;;5045303;28;21114;-57
2023/09/22 07:02:59;;;;;;;4.73;1.83;;;;;;;;;;5047602;28;20433;-57
2023/09/22 07:05:24;;;;;;;4.72;1.70;;;;;;;;;;5046284;28;20907;-57
2023/09/22 07:07:50;;;;;;;4.93;1.83;;;;;;;;;;5047746;28;20393;-57
2023/09/22 07:10:15;;;;;;;7.70;2.23;;;;;;;;;;5048247;28;20756;-57
2023/09/22 07:12:41;;;;;;;4.77;1.70;;;;;;;;;;5044721;28;20412;-57
2023/09/22 07:15:07;;;;;;;4.70;1.80;;;;;;;;;;5039325;28;20942;-58
2023/09/22 07:17:32;;;;;;;6.30;1.90;;;;;;;;;;5048431;28;20441;-57
2023/09/22 07:19:58;;;;;;;6.37;1.73;;;;;;;;;;5045711;28;20409;-57
2023/09/22 07:22:23;;;;;;;4.07;1.80;;;;;;;;;;5046913;28;20437;-57
2023/09/22 07:24:50;;;;;;;6.23;1.90;;;;;;;;;;5043748;28;20915;-57
2023/09/22 07:27:16;;;;;;;4.53;1.60;;;;;;;;;;5046483;28;20401;-57
2023/09/22 07:29:42;;;;;;;6.77;1.90;;;;;;;;;;5046280;28;20394;-57
2023/09/22 07:32:08;;;;;;;6.60;1.90;;;;;;;;;;5047147;28;20416;-57
2023/09/22 07:34:33;;;;;;;5.17;1.90;;;;;;;;;;5047172;28;20741;-57
2023/09/22 07:36:59;;;;;;;5.10;1.83;;;;;;;;;;5045454;28;20413;-57
2023/09/22 07:39:24;;;;;;;4.23;1.67;;;;;;;;;;5046663;28;20404;-57
2023/09/22 07:41:49;;;;;;;4.70;1.60;;;;;;;;;;5047089;28;20409;-57
2023/09/22 07:44:18;;;;;;;4.33;1.40;;;;;;;;;;5045954;28;20444;-57
2023/09/22 07:46:43;;;;;;;4.05;1.52;;;;;;;;;;5046521;28;20462;-57
2023/09/22 07:49:10;;;;;;;4.47;1.47;;;;;;;;;;5046400;28;20413;-57
2023/09/22 07:51:36;;;;;;;2.92;1.30;;;;;;;;;;5047372;28;20393;-57
2023/09/22 07:54:01;;;;;;;3.03;1.20;;;;;;;;;;5044594;28;21033;-58
2023/09/22 07:56:27;;;;;;;5.50;1.40;;;;;;;;;;5046846;28;20409;-57
2023/09/22 07:58:52;;;;;;;4.72;1.20;;;;;;;;;;5047529;28;20405;-57
2023/09/22 08:01:17;;;;;;;3.50;1.30;;;;;;;;;;5045531;28;20406;-57
2023/09/22 08:03:43;;;;;;;4.03;1.10;;;;;;;;;;5045868;28;20409;-57
2023/09/22 08:06:10;;;;;;;4.07;1.10;;;;;;;;;;5045789;28;20445;-57
2023/09/22 08:08:35;;;;;;;3.30;1.20;;;;;;;;;;5045478;28;20393;-57
2023/09/22 08:11:01;;;;;;;4.00;1.30;;;;;;;;;;5044148;28;20457;-57
2023/09/22 08:13:27;;;;;;;3.80;0.90;;;;;;;;;;5047224;28;20489;-57
2023/09/22 08:15:52;;;;;;;3.30;1.03;;;;;;;;;;5047010;28;20472;-57
2023/09/22 08:18:17;;;;;;;4.40;1.20;;;;;;;;;;5043984;28;20417;-58
2023/09/22 08:20:42;;;;;;;3.00;1.00;;;;;;;;;;5046984;28;20508;-57
2023/09/22 08:23:08;;;;;;;3.40;1.10;;;;;;;;;;5045477;28;20819;-57
2023/09/22 08:25:34;;;;;;;4.50;1.27;;;;;;;;;;5045682;28;20413;-57
2023/09/22 08:28:00;;;;;;;3.72;1.05;;;;;;;;;;5045857;28;20412;-57
2023/09/22 08:30:26;;;;;;;2.50;1.00;;;;;;;;;;5045700;28;20401;-57
2023/09/22 08:32:51;;;;;;;6.13;1.38;;;;;;;;;;5028897;28;20448;-56
2023/09/22 08:35:17;;;;;;;3.00;0.90;;;;;;;;;;5044429;28;20410;-57
2023/09/22 08:37:42;;;;;;;2.70;0.90;;;;;;;;;;5046275;28;20516;-57
2023/09/22 08:40:08;;;;;;;3.53;0.90;;;;;;;;;;5046413;28;20401;-58
2023/09/22 08:42:34;;;;;;;4.30;1.30;;;;;;;;;;5044844;28;20472;-57
2023/09/22 08:45:00;;;;;;;3.35;1.20;;;;;;;;;;5045272;28;20425;-57
2023/09/22 08:47:25;;;;;;;3.13;1.00;;;;;;;;;;5042837;28;20410;-57
2023/09/22 08:49:51;;;;;;;3.33;1.00;;;;;;;;;;5045820;28;20428;-57
2023/09/22 08:52:16;;;;;;;4.75;0.80;;;;;;;;;;5043820;28;20718;-57
2023/09/22 08:54:41;;;;;;;2.10;0.80;;;;;;;;;;5044718;28;20782;-57
2023/09/22 08:57:06;;;;;;;2.13;0.77;;;;;;;;;;5045218;28;20432;-57
2023/09/22 08:59:32;;;;;;;3.72;1.00;;;;;;;;;;5043915;28;20757;-57
2023/09/22 09:01:58;;;;;;;4.70;0.80;;;;;;;;;;5046931;28;20486;-57
2023/09/22 09:04:29;;;;;;;1.83;0.67;;;;;;;;;;5049250;28;20406;-57
2023/09/22 09:06:55;;;;;;;2.05;0.70;;;;;;;;;;5048511;28;20409;-58
2023/09/22 09:09:20;;;;;;;2.83;0.70;;;;;;;;;;5049215;28;20373;-57
2023/09/22 09:11:58;;;;;;;2.80;0.80;;;;;;;;;;5050838;28;20726;-57
2023/09/22 09:14:28;;;;;;;2.60;0.80;;;;;;;;;;5049300;28;20411;-57
2023/09/22 09:16:53;;;;;;;2.10;0.70;;;;;;;;;;5048201;28;20400;-57
2023/09/22 09:19:20;;;;;;;3.07;0.70;;;;;;;;;;5040669;28;20405;-57
2023/09/22 09:22:09;;;;;;;1.80;0.60;;;;;;;;;;5050215;28;20488;-57
2023/09/22 09:24:35;;;;;;;1.75;0.80;;;;;;;;;;5049079;28;20402;-57
2023/09/22 09:27:00;;;;;;;3.73;0.83;;;;;;;;;;5047889;28;20787;-57
2023/09/22 09:29:27;;;;;;;2.73;0.70;;;;;;;;;;5050011;28;20397;-57
2023/09/22 09:31:52;;;;;;;2.78;0.85;;;;;;;;;;5050540;28;20455;-57
2023/09/22 09:34:18;;;;;;;2.80;0.67;;;;;;;;;;5046982;28;20439;-57
2023/09/22 09:36:43;;;;;;;2.57;0.70;;;;;;;;;;5050197;28;20409;-57
2023/09/22 09:39:11;;;;;;;2.60;0.67;;;;;;;;;;5049435;28;20405;-57
2023/09/22 09:41:37;;;;;;;2.17;0.73;;;;;;;;;;5048552;28;20482;-57
2023/09/22 09:44:03;;;;;;;1.70;0.50;;;;;;;;;;5047699;28;20419;-57
2023/09/22 09:46:28;;;;;;;2.53;0.80;;;;;;;;;;5048923;28;20413;-57
2023/09/22 09:48:55;;;;;;;2.33;0.73;;;;;;;;;;5046243;28;20418;-57
2023/09/22 09:51:20;;;;;;;3.30;0.90;;;;;;;;;;5044349;28;20486;-57
2023/09/22 09:53:46;;;;;;;3.10;0.70;;;;;;;;;;5048134;28;20444;-57
2023/09/22 09:56:13;;;;;;;3.10;0.70;;;;;;;;;;5048879;28;20397;-57
2023/09/22 09:58:38;;;;;;;2.78;0.63;;;;;;;;;;5048125;28;20393;-57
2023/09/22 10:01:05;;;;;;;2.20;0.70;;;;;;;;;;5048635;28;20550;-57
2023/09/22 10:03:31;;;;;;;3.40;0.90;;;;;;;;;;5048689;28;20417;-57
2023/09/22 10:05:57;;;;;;;4.85;1.10;;;;;;;;;;5049294;28;20888;-57
2023/09/22 10:08:22;;;;;;;3.63;0.80;;;;;;;;;;5045512;28;20405;-57
2023/09/22 10:10:48;;;;;;;2.17;0.60;;;;;;;;;;5049167;28;20409;-57
2023/09/22 10:13:13;;;;;;;3.57;0.77;;;;;;;;;;5048889;28;20409;-57
2023/09/22 10:15:52;;;;;;;2.97;0.70;;;;;;;;;;5045178;28;20402;-58
2023/09/22 10:18:18;;;;;;;1.83;0.70;;;;;;;;;;5048418;28;20409;-57
2023/09/22 10:20:45;;;;;;;2.90;0.68;;;;;;;;;;5049723;28;20859;-57
2023/09/22 10:23:14;;;;;;;2.17;0.63;;;;;;;;;;5047140;28;20425;-57
2023/09/22 10:25:39;;;;;;;3.30;0.70;;;;;;;;;;5047157;28;20738;-57
2023/09/22 10:28:07;;;;;;;3.70;0.70;;;;;;;;;;5049203;28;20423;-57
2023/09/22 10:30:44;;;;;;;2.40;0.65;;;;;;;;;;5048396;28;20884;-57
2023/09/22 10:33:22;;;;;;;2.67;0.75;;;;;;;;;;5047126;28;20401;-57
2023/09/22 10:35:47;;;;;;;1.48;0.65;;;;;;;;;;5047917;28;20448;-57
2023/09/22 10:38:14;;;;;;;1.80;0.68;;;;;;;;;;5047742;28;20401;-57
2023/09/22 10:40:46;;;;;;;3.58;0.70;;;;;;;;;;5048811;28;20438;-57
2023/09/22 10:43:13;;;;;;;1.17;0.47;;;;;;;;;;5050591;28;20489;-57
2023/09/22 10:45:38;;;;;;;2.30;0.55;;;;;;;;;;5046345;28;20452;-57
2023/09/22 10:48:04;;;;;;;2.93;0.53;;;;;;;;;;5049188;28;20503;-58
2023/09/22 10:50:30;;;;;;;2.27;0.77;;;;;;;;;;5048956;28;20480;-57
2023/09/22 10:52:56;;;;;;;2.47;0.60;;;;;;;;;;5044151;28;20505;-57
2023/09/22 10:55:23;;;;;;;2.00;0.60;;;;;;;;;;5048156;28;20398;-57
2023/09/22 10:57:49;;;;;;;3.92;0.60;;;;;;;;;;5048157;28;20397;-57
2023/09/22 11:00:18;;;;;;;2.73;0.80;;;;;;;;;;5046564;28;20923;-57
2023/09/22 11:02:43;;;;;;;2.25;0.55;;;;;;;;;;5046494;28;20417;-57
2023/09/22 11:05:10;;;;;;;2.40;0.63;;;;;;;;;;5047452;28;20423;-57
2023/09/22 11:07:36;;;;;;;1.37;0.50;;;;;;;;;;5047793;28;20937;-57
2023/09/22 11:10:02;;;;;;;3.42;0.80;;;;;;;;;;5046224;28;20398;-58
2023/09/22 11:12:27;;;;;;;1.98;0.60;;;;;;;;;;5047487;28;20397;-57
2023/09/22 11:14:53;;;;;;;1.77;0.70;;;;;;;;;;5048457;28;20409;-57
2023/09/22 11:17:19;;;;;;;1.90;0.60;;;;;;;;;;5045932;28;20397;-57
2023/09/22 11:19:50;;;;;;;1.95;0.60;;;;;;;;;;5047245;28;20480;-58
2023/09/22 11:22:16;;;;;;;4.22;0.80;;;;;;;;;;5047497;28;20455;-57
2023/09/22 11:24:41;;;;;;;3.23;1.00;;;;;;;;;;5047059;28;20788;-57
2023/09/22 11:27:06;;;;;;;1.30;0.50;;;;;;;;;;5045269;28;20406;-57
2023/09/22 11:29:33;;;;;;;1.70;0.50;;;;;;;;;;5048418;28;20390;-57
2023/09/22 11:31:58;;;;;;;1.30;0.57;;;;;;;;;;5046602;28;20435;-57
2023/09/22 11:34:24;;;;;;;2.60;0.60;;;;;;;;;;5044377;28;20782;-57
2023/09/22 11:36:51;;;;;;;1.90;0.40;;;;;;;;;;5048200;28;20416;-57
2023/09/22 11:39:26;;;;;;;1.80;0.47;;;;;;;;;;5047147;28;20492;-57
2023/09/22 11:41:52;;;;;;;3.08;0.70;;;;;;;;;;5045704;28;20409;-57
2023/09/22 11:44:17;;;;;;;2.30;0.50;;;;;;;;;;5045782;28;20748;-57
2023/09/22 11:46:46;;;;;;;1.00;0.40;;;;;;;;;;5047583;28;20409;-57
2023/09/22 11:49:12;;;;;;;1.93;0.50;;;;;;;;;;5046913;28;20409;-57
2023/09/22 11:51:38;;;;;;;2.50;0.40;;;;;;;;;;5045187;28;20432;-57
2023/09/22 11:54:03;;;;;;;1.40;0.50;;;;;;;;;;5046490;28;20817;-57
2023/09/22 11:56:28;;;;;;;2.90;0.57;;;;;;;;;;5047664;28;20397;-57
2023/09/22 11:59:03;;;;;;;1.73;0.50;;;;;;;;;;5046099;28;20409;-57
2023/09/22 12:01:28;;;;;;;2.08;0.70;;;;;;;;;;5044082;28;20566;-57
2023/09/22 12:03:54;;;;;;;1.93;0.50;;;;;;;;;;5047449;28;20417;-56
2023/09/22 12:06:21;;;;;;;1.73;0.50;;;;;;;;;;5046312;28;21284;-57
2023/09/22 12:08:46;;;;;;;1.95;0.50;;;;;;;;;;5044372;28;20440;-57
2023/09/22 12:11:11;;;;;;;2.75;0.80;;;;;;;;;;5047054;28;20452;-57
2023/09/22 12:13:37;;;;;;;2.55;0.80;;;;;;;;;;5047566;28;20402;-57
2023/09/22 12:16:02;;;;;;;3.33;0.70;;;;;;;;;;5044435;28;20406;-58
2023/09/22 12:18:27;;;;;;;1.42;0.50;;;;;;;;;;5047184;28;20425;-57
2023/09/22 12:20:53;;;;;;;2.08;0.57;;;;;;;;;;5046975;28;20899;-57
2023/09/22 12:23:18;;;;;;;2.27;0.60;;;;;;;;;;5044940;28;20946;-57
2023/09/22 12:25:45;;;;;;;2.73;0.60;;;;;;;;;;5045791;28;20409;-57
2023/09/22 12:28:10;;;;;;;2.75;0.70;;;;;;;;;;5046685;28;20425;-57
2023/09/22 12:30:35;;;;;;;2.87;0.60;;;;;;;;;;5046576;28;20966;-57
2023/09/22 12:33:01;;;;;;;3.00;0.90;;;;;;;;;;5044626;28;20419;-58
2023/09/22 12:35:28;;;;;;;2.95;0.73;;;;;;;;;;5046838;28;20510;-57
2023/09/22 12:37:54;;;;;;;4.15;0.70;;;;;;;;;;5045666;28;20441;-57
2023/09/22 12:40:19;;;;;;;3.10;0.63;;;;;;;;;;5044857;28;20440;-57
2023/09/22 12:42:44;;;;;;;4.13;0.80;;;;;;;;;;5046200;28;20398;-57
2023/09/22 12:45:09;;;;;;;2.90;0.60;;;;;;;;;;5046019;28;20934;-57
2023/09/22 12:47:35;;;;;;;2.60;0.60;;;;;;;;;;5046356;28;20823;-57
2023/09/22 12:50:04;;;;;;;2.53;0.77;;;;;;;;;;5043995;28;20389;-57
2023/09/22 12:52:31;;;;;;;3.70;0.98;;;;;;;;;;5046024;28;20538;-57
2023/09/22 12:54:56;;;;;;;4.30;0.85;;;;;;;;;;5046238;28;20402;-57
2023/09/22 12:57:21;;;;;;;2.80;0.70;;;;;;;;;;5043672;28;20727;-57
2023/09/22 12:59:47;;;;;;;2.57;1.00;;;;;;;;;;5046625;28;20455;-58
2023/09/22 13:02:12;;;;;;;2.63;0.70;;;;;;;;;;5046522;28;20909;-57
2023/09/22 13:04:38;;;;;;;2.67;0.70;;;;;;;;;;5044429;28;20416;-57
2023/09/22 13:07:04;;;;;;;1.90;0.60;;;;;;;;;;5045387;28;20417;-57
2023/09/22 13:09:29;;;;;;;2.35;0.70;;;;;;;;;;5046910;28;20431;-57
2023/09/22 13:11:54;;;;;;;2.43;0.60;;;;;;;;;;5045793;28;20414;-57
2023/09/22 13:14:20;;;;;;;2.23;0.60;;;;;;;;;;5044139;28;20896;-57
2023/09/22 13:16:45;;;;;;;1.50;0.50;;;;;;;;;;5046780;28;20401;-57
2023/09/22 13:19:10;;;;;;;3.47;0.73;;;;;;;;;;5045647;28;20410;-57
2023/09/22 13:21:36;;;;;;;3.07;0.60;;;;;;;;;;5044860;28;20429;-57
2023/09/22 13:24:01;;;;;;;3.10;0.60;;;;;;;;;;5045805;28;20935;-58
2023/09/22 13:26:26;;;;;;;2.10;0.70;;;;;;;;;;5045883;28;20408;-57
2023/09/22 13:28:55;;;;;;;2.50;0.77;;;;;;;;;;5045606;28;20480;-57
2023/09/22 13:31:20;;;;;;;2.25;0.63;;;;;;;;;;5039739;28;23646;-57
2023/09/22 13:33:45;;;;;;;2.97;0.60;;;;;;;;;;5025367;28;20440;-57
2023/09/22 13:36:17;;;;;;;2.43;0.60;;;;;;;;;;5021408;28;20418;-57
2023/09/22 13:38:43;;;;;;;2.58;0.60;;;;;;;;;;5024235;28;21166;-57
2023/09/22 13:41:10;;;;;;;2.10;0.60;;;;;;;;;;5023626;28;20420;-57
2023/09/22 13:43:35;;;;;;;3.17;0.75;;;;;;;;;;5027496;28;20407;-57
2023/09/22 13:46:01;;;;;;;3.20;0.70;;;;;;;;;;5028913;28;20407;-59
2023/09/22 13:48:26;;;;;;;3.20;0.70;;;;;;;;;;5029017;28;21013;-57
2023/09/22 13:50:51;;;;;;;1.63;0.60;;;;;;;;;;5034977;28;20463;-57
2023/09/22 13:53:16;;;;;;;1.57;0.50;;;;;;;;;;5032208;28;21092;-57
2023/09/22 13:55:42;;;;;;;2.70;0.80;;;;;;;;;;5030294;28;21161;-57
2023/09/22 13:58:09;;;;;;;2.87;0.70;;;;;;;;;;5023049;28;20785;-57
2023/09/22 14:00:34;;;;;;;2.30;0.65;;;;;;;;;;5023670;28;20487;-57
2023/09/22 14:03:00;;;;;;;3.35;0.60;;;;;;;;;;5029707;28;20504;-57
2023/09/22 14:05:26;;;;;;;2.28;0.60;;;;;;;;;;5031006;28;20869;-57
2023/09/22 14:07:51;;;;;;;3.03;0.87;;;;;;;;;;5037980;28;20403;-57
2023/09/22 14:10:18;;;;;;;3.30;0.75;;;;;;;;;;5031075;28;20824;-57
2023/09/22 14:12:43;;;;;;;3.95;0.90;;;;;;;;;;5032239;28;20812;-57
2023/09/22 14:15:09;;;;;;;3.87;0.80;;;;;;;;;;5029787;28;20506;-57
2023/09/22 14:17:34;;;;;;;3.00;0.70;;;;;;;;;;5030979;28;20394;-57
2023/09/22 14:19:59;;;;;;;2.87;0.93;;;;;;;;;;5026552;28;20910;-57
2023/09/22 14:22:24;;;;;;;2.73;0.73;;;;;;;;;;5022923;28;20739;-57
2023/09/22 14:24:52;;;;;;;3.23;0.90;;;;;;;;;;5025384;28;20709;-57
2023/09/22 14:27:17;;;;;;;1.83;0.70;;;;;;;;;;5032015;28;20411;-57
2023/09/22 14:29:42;;;;;;;3.40;0.70;;;;;;;;;;5029603;28;20408;-57